Aérodrome :







RETROUVEZ-NOUS SUR...

 
LOGIN :

S'inscrire | Disclaimer

   EN    FR    IT 

 









Légende :    VFR   VFR Marginal   IFR   IFR Intensif   IFR Très Intensif
Visi : 
Plafond : 
>= 8 km
>= 3000ft
5 à 8 km
1000 à 3000 ft
1500m à 5 km
500 à 1000 ft
800 à 1500m
200 à 500 ft
< 800m
< 200 ft
Symboles :   Orages  Brouillard  Fortes neiges  Fortes précipitations  Vent > 20 kt






- Altitude de l'aérodrome : 20 ft
- Code IATA : BOS


KBOS - General Edward Lawrence Logan International

DERNIER METAR :
  • 200554Z 32013KT 10SM BKN060 OVC110 M06/M14 A2994 RMK AO2 SLP139 T10561144 10033 21056 51035 $

METARs EXPIRÉS :
  • 200454Z 32019G25KT 10SM OVC065 M04/M14 A2993 RMK AO2 PK WND 31028/0444 SLP133 T10441144 400721044 $
  • 200354Z 31013G21KT 10SM FEW036 SCT043 OVC055 M02/M12 A2989 RMK AO2 SLP122 T10221117 $

TAF KBOS
Valide du 20 à 06h jusqu'au 21 à 12h UTC


200527Z 2006/2112 33013G23KT P6SM SCT040
FM202200 32010G17KT P6SM FEW200
FM210000 30009KT P6SM SKC



MET'MAP, la Météo Aéronautique d'un coup d'oeil ! - Copyright ORBIFLY Décembre 2007 - Disclaimer

ORBIFLY MET'MAP TEAM :

Programmation & Développement : Alexandra Zaïnal
Sur une idée originale de : Baudouin d'Aumeries
Assistance à la programmation : Marc-Olivier Méhu
Soutien technique & logistique : Manuel Goepfert

Contact : metmap@orbifly.com




SOURCES & CREDITS :

   NOAA